Time;durP1;ratioP1;P1;durP2;ratioP2;P2;SDS_P1;SDS_P2;PMS_P1;PMS_P2;Temp;Humidity;BMP_temperature;BMP_pressure;BME280_temperature;BME280_humidity;BME280_pressure;Samples;Min_cycle;Max_cycle;Signal;HPM_P1;HPM_P2
2023/04/17 00:00:23;;;;;;;6.32;2.35;;;;;;;;;;4981706;28;20066;-76
2023/04/17 00:02:49;;;;;;;6.30;2.72;;;;;;;;;;4984072;28;20042;-75
2023/04/17 00:05:16;;;;;;;5.10;2.60;;;;;;;;;;4980340;28;20043;-79
2023/04/17 00:07:42;;;;;;;5.40;2.95;;;;;;;;;;4988221;28;20106;-75
2023/04/17 00:10:09;;;;;;;6.82;4.05;;;;;;;;;;4983473;28;20106;-76
2023/04/17 00:12:36;;;;;;;8.90;3.53;;;;;;;;;;4985178;28;20182;-76
2023/04/17 00:15:02;;;;;;;8.15;4.22;;;;;;;;;;4987656;28;20440;-76
2023/04/17 00:17:28;;;;;;;7.25;4.03;;;;;;;;;;4987341;28;20156;-76
2023/04/17 00:19:54;;;;;;;7.90;4.53;;;;;;;;;;4991057;28;20046;-77
2023/04/17 00:22:21;;;;;;;6.35;3.00;;;;;;;;;;4989726;28;20042;-77
2023/04/17 00:24:47;;;;;;;8.63;3.40;;;;;;;;;;4994821;28;20060;-76
2023/04/17 00:27:13;;;;;;;6.57;3.00;;;;;;;;;;4989169;28;20026;-76
2023/04/17 00:29:39;;;;;;;6.35;3.10;;;;;;;;;;4989054;28;20030;-78
2023/04/17 00:32:05;;;;;;;5.95;2.28;;;;;;;;;;4988294;28;20109;-76
2023/04/17 00:34:31;;;;;;;3.55;1.00;;;;;;;;;;4987965;28;20030;-76
2023/04/17 00:36:58;;;;;;;7.03;1.00;;;;;;;;;;4986553;28;20014;-76
2023/04/17 00:39:24;;;;;;;5.43;1.17;;;;;;;;;;4989658;28;20046;-78
2023/04/17 00:41:51;;;;;;;2.88;0.80;;;;;;;;;;4987113;28;20030;-76
2023/04/17 00:44:17;;;;;;;4.10;0.93;;;;;;;;;;4990949;28;20662;-76
2023/04/17 00:46:43;;;;;;;2.53;0.75;;;;;;;;;;4993311;28;20044;-76
2023/04/17 00:49:10;;;;;;;1.77;0.60;;;;;;;;;;5003169;28;20105;-79
2023/04/17 00:51:36;;;;;;;1.77;0.60;;;;;;;;;;4987871;28;20503;-76
2023/04/17 00:54:02;;;;;;;4.88;0.70;;;;;;;;;;4987635;28;20030;-76
2023/04/17 00:56:29;;;;;;;2.67;0.50;;;;;;;;;;4991621;28;20030;-76
2023/04/17 00:58:57;;;;;;;2.33;0.60;;;;;;;;;;4989942;28;20030;-75
2023/04/17 01:01:23;;;;;;;4.97;0.70;;;;;;;;;;4987844;28;20023;-80
2023/04/17 01:03:50;;;;;;;1.15;0.45;;;;;;;;;;4987551;28;20042;-78
2023/04/17 01:06:16;;;;;;;1.20;0.55;;;;;;;;;;4983235;28;20517;-76
2023/04/17 01:08:43;;;;;;;4.18;0.63;;;;;;;;;;4984917;28;20045;-75
2023/04/17 01:11:10;;;;;;;2.08;0.65;;;;;;;;;;4986175;28;20026;-76
2023/04/17 01:13:49;;;;;;;4.82;0.60;;;;;;;;;;4983263;28;20092;-76
2023/04/17 01:16:16;;;;;;;1.08;0.63;;;;;;;;;;4981724;28;20038;-76
2023/04/17 01:18:42;;;;;;;3.60;0.70;;;;;;;;;;4989099;28;20052;-76
2023/04/17 01:21:08;;;;;;;6.97;0.60;;;;;;;;;;4990648;28;20157;-76
2023/04/17 01:23:45;;;;;;;2.85;0.60;;;;;;;;;;4983857;28;20048;-77
2023/04/17 01:26:16;;;;;;;2.92;0.65;;;;;;;;;;4988254;28;20097;-77
2023/04/17 01:28:42;;;;;;;4.30;0.65;;;;;;;;;;4986429;28;20032;-76
2023/04/17 01:31:09;;;;;;;2.58;0.43;;;;;;;;;;4992511;28;20030;-76
2023/04/17 01:33:35;;;;;;;2.95;0.60;;;;;;;;;;4983800;28;20042;-76
2023/04/17 01:36:01;;;;;;;2.38;0.60;;;;;;;;;;4984542;28;20023;-78
2023/04/17 01:38:27;;;;;;;1.33;0.60;;;;;;;;;;4988149;28;20091;-76
2023/04/17 01:40:53;;;;;;;2.08;0.60;;;;;;;;;;4982740;28;20027;-76
2023/04/17 01:43:20;;;;;;;2.45;0.45;;;;;;;;;;4985162;28;20045;-75
2023/04/17 01:45:46;;;;;;;2.05;0.57;;;;;;;;;;4987357;28;20025;-76
2023/04/17 01:48:12;;;;;;;1.50;0.45;;;;;;;;;;4985453;28;20040;-76
2023/04/17 01:50:38;;;;;;;6.97;0.95;;;;;;;;;;4989647;28;20025;-76
2023/04/17 01:53:04;;;;;;;1.05;0.40;;;;;;;;;;4988804;28;20027;-76
2023/04/17 01:55:31;;;;;;;2.83;0.52;;;;;;;;;;4983595;28;20026;-78
2023/04/17 01:57:57;;;;;;;3.95;0.50;;;;;;;;;;4989705;28;20025;-79
2023/04/17 02:00:23;;;;;;;2.67;0.43;;;;;;;;;;4988240;28;20133;-76
2023/04/17 02:02:49;;;;;;;2.08;0.68;;;;;;;;;;4984848;28;20030;-76
2023/04/17 02:05:15;;;;;;;1.67;0.52;;;;;;;;;;4986898;28;20037;-76
2023/04/17 02:07:42;;;;;;;2.42;0.60;;;;;;;;;;4983551;28;20027;-76
2023/04/17 02:10:08;;;;;;;2.22;0.60;;;;;;;;;;4984021;28;20022;-76
2023/04/17 02:12:34;;;;;;;2.55;0.55;;;;;;;;;;4985633;28;20030;-76
2023/04/17 02:15:00;;;;;;;3.13;0.50;;;;;;;;;;4992747;28;20709;-76
2023/04/17 02:17:26;;;;;;;3.58;0.82;;;;;;;;;;4984647;28;20034;-77
2023/04/17 02:19:53;;;;;;;4.05;0.80;;;;;;;;;;4989015;28;20132;-76
2023/04/17 02:22:20;;;;;;;1.90;0.60;;;;;;;;;;4997269;28;20507;-75
2023/04/17 02:24:46;;;;;;;3.33;0.68;;;;;;;;;;4998924;28;20034;-76
2023/04/17 02:27:12;;;;;;;2.42;0.85;;;;;;;;;;4984530;28;20058;-77
2023/04/17 02:29:40;;;;;;;4.18;0.60;;;;;;;;;;4991439;28;20046;-75
2023/04/17 02:32:06;;;;;;;3.83;0.50;;;;;;;;;;4983638;28;20033;-75
2023/04/17 02:34:32;;;;;;;2.63;0.70;;;;;;;;;;4985582;28;20150;-76
2023/04/17 02:36:59;;;;;;;3.75;1.00;;;;;;;;;;4982580;28;20030;-75
2023/04/17 02:39:26;;;;;;;2.83;0.88;;;;;;;;;;4985275;28;20280;-75
2023/04/17 02:41:52;;;;;;;4.55;1.55;;;;;;;;;;4983696;28;20029;-75
2023/04/17 02:44:18;;;;;;;2.95;0.85;;;;;;;;;;4983487;28;20487;-76
2023/04/17 02:46:44;;;;;;;6.65;1.35;;;;;;;;;;4987471;28;20018;-75
2023/04/17 02:49:10;;;;;;;6.47;1.50;;;;;;;;;;4988842;28;20042;-77
2023/04/17 02:51:36;;;;;;;9.43;1.13;;;;;;;;;;4983397;28;20034;-76
2023/04/17 02:54:03;;;;;;;9.65;1.65;;;;;;;;;;4975523;28;20026;-76
2023/04/17 02:56:29;;;;;;;8.35;2.30;;;;;;;;;;4984741;28;20034;-76
2023/04/17 02:58:55;;;;;;;5.93;1.80;;;;;;;;;;4963803;28;20030;-76
2023/04/17 03:01:22;;;;;;;13.48;2.30;;;;;;;;;;4978156;28;20137;-76
2023/04/17 03:03:48;;;;;;;11.63;3.25;;;;;;;;;;4987296;28;20030;-78
2023/04/17 03:06:14;;;;;;;10.95;2.20;;;;;;;;;;4988153;28;20485;-77
2023/04/17 03:08:41;;;;;;;13.20;2.95;;;;;;;;;;4984414;28;20398;-75
2023/04/17 03:11:07;;;;;;;7.85;2.05;;;;;;;;;;4972623;28;20747;-75
2023/04/17 03:13:36;;;;;;;6.57;1.52;;;;;;;;;;4982987;28;20791;-76
2023/04/17 03:16:03;;;;;;;11.00;2.25;;;;;;;;;;4982261;28;20045;-76
2023/04/17 03:18:30;;;;;;;7.60;1.92;;;;;;;;;;4983844;28;20149;-77
2023/04/17 03:20:56;;;;;;;13.05;2.78;;;;;;;;;;4982390;28;20030;-75
2023/04/17 03:23:22;;;;;;;8.98;1.83;;;;;;;;;;4980787;28;20100;-76
2023/04/17 03:25:49;;;;;;;8.60;2.03;;;;;;;;;;4982086;28;20083;-78
2023/04/17 03:28:15;;;;;;;9.52;2.00;;;;;;;;;;4984242;28;20034;-75
2023/04/17 03:30:41;;;;;;;5.88;1.85;;;;;;;;;;4980099;28;20105;-76
2023/04/17 03:33:07;;;;;;;13.05;2.35;;;;;;;;;;4975616;28;20058;-76
2023/04/17 03:35:34;;;;;;;10.20;1.90;;;;;;;;;;4982339;28;20177;-76
2023/04/17 03:38:00;;;;;;;11.00;3.08;;;;;;;;;;4982142;28;20701;-75
2023/04/17 03:40:26;;;;;;;12.30;2.72;;;;;;;;;;4982741;28;20511;-76
2023/04/17 03:42:52;;;;;;;8.43;3.13;;;;;;;;;;4981848;28;20072;-75
2023/04/17 03:45:19;;;;;;;9.38;2.15;;;;;;;;;;4981976;28;20155;-75
2023/04/17 03:47:46;;;;;;;7.47;1.67;;;;;;;;;;4980131;28;20026;-75
2023/04/17 03:50:12;;;;;;;10.23;2.25;;;;;;;;;;4982685;28;20031;-75
2023/04/17 03:52:39;;;;;;;8.93;2.28;;;;;;;;;;4981786;28;20034;-77
2023/04/17 03:55:06;;;;;;;5.20;1.40;;;;;;;;;;4981835;28;20026;-77
2023/04/17 03:57:32;;;;;;;6.10;1.40;;;;;;;;;;4980106;28;20114;-76
2023/04/17 03:59:58;;;;;;;7.85;1.58;;;;;;;;;;4983738;28;20390;-77
2023/04/17 04:02:24;;;;;;;8.95;1.67;;;;;;;;;;4990621;28;20033;-77
2023/04/17 04:04:51;;;;;;;5.47;1.58;;;;;;;;;;4981908;28;20065;-77
2023/04/17 04:07:17;;;;;;;4.68;1.25;;;;;;;;;;4984177;28;20057;-78
2023/04/17 04:09:43;;;;;;;7.78;2.20;;;;;;;;;;4980903;28;20034;-78
2023/04/17 04:12:10;;;;;;;8.40;1.80;;;;;;;;;;4965247;28;20029;-78
2023/04/17 04:14:36;;;;;;;7.22;1.80;;;;;;;;;;4988365;28;20023;-79
2023/04/17 04:17:02;;;;;;;12.20;1.67;;;;;;;;;;4981644;28;20368;-77
2023/04/17 04:19:29;;;;;;;8.27;1.77;;;;;;;;;;4985990;28;20058;-78
2023/04/17 04:21:56;;;;;;;8.30;2.03;;;;;;;;;;4983297;28;20037;-78
2023/04/17 04:24:22;;;;;;;4.68;1.70;;;;;;;;;;4981920;28;20170;-78
2023/04/17 04:26:49;;;;;;;10.43;1.80;;;;;;;;;;4981949;28;20026;-78
2023/04/17 04:29:15;;;;;;;9.57;1.83;;;;;;;;;;4982793;28;20592;-77
2023/04/17 04:31:45;;;;;;;7.65;1.70;;;;;;;;;;4980940;28;20073;-77
2023/04/17 04:34:12;;;;;;;9.68;1.73;;;;;;;;;;4986998;28;20030;-76
2023/04/17 04:36:40;;;;;;;9.77;1.30;;;;;;;;;;4982959;28;20030;-78
2023/04/17 04:39:07;;;;;;;8.73;1.83;;;;;;;;;;4981415;28;20030;-77
2023/04/17 04:41:33;;;;;;;11.07;2.10;;;;;;;;;;4984066;28;20030;-77
2023/04/17 04:44:00;;;;;;;6.75;1.67;;;;;;;;;;4982682;28;20045;-77
2023/04/17 04:46:27;;;;;;;6.40;2.00;;;;;;;;;;4983759;28;20037;-77
2023/04/17 04:48:53;;;;;;;4.70;1.35;;;;;;;;;;4983614;28;20031;-77
2023/04/17 04:51:19;;;;;;;7.25;1.70;;;;;;;;;;4984252;28;20065;-77
2023/04/17 04:53:45;;;;;;;10.00;1.70;;;;;;;;;;4984167;28;20479;-77
2023/04/17 04:56:12;;;;;;;6.32;1.58;;;;;;;;;;4978440;28;20137;-77
2023/04/17 04:58:38;;;;;;;5.10;1.80;;;;;;;;;;4981304;28;20022;-78
2023/04/17 05:01:05;;;;;;;4.65;1.35;;;;;;;;;;4981894;28;20101;-78
2023/04/17 05:03:31;;;;;;;7.28;1.30;;;;;;;;;;4985210;28;20038;-78
2023/04/17 05:05:57;;;;;;;5.07;1.45;;;;;;;;;;4984670;28;20022;-78
2023/04/17 05:08:23;;;;;;;6.60;1.50;;;;;;;;;;4984816;28;20034;-77
2023/04/17 05:10:50;;;;;;;8.05;1.50;;;;;;;;;;4983889;28;20053;-78
2023/04/17 05:13:16;;;;;;;6.35;1.73;;;;;;;;;;4984890;28;20030;-78
2023/04/17 05:15:42;;;;;;;7.00;1.75;;;;;;;;;;4984554;28;20061;-78
2023/04/17 05:18:08;;;;;;;7.35;1.50;;;;;;;;;;4984073;28;20654;-78
2023/04/17 05:20:36;;;;;;;8.45;1.60;;;;;;;;;;4987670;28;20038;-78
2023/04/17 05:23:03;;;;;;;3.75;1.10;;;;;;;;;;4992993;28;20026;-77
2023/04/17 05:25:29;;;;;;;4.57;1.50;;;;;;;;;;4987222;28;20039;-77
2023/04/17 05:27:55;;;;;;;7.50;1.30;;;;;;;;;;5003308;28;20096;-77
2023/04/17 05:30:22;;;;;;;7.10;1.40;;;;;;;;;;4987167;28;20368;-78
2023/04/17 05:32:48;;;;;;;8.15;1.30;;;;;;;;;;4987124;28;20027;-77
2023/04/17 05:35:14;;;;;;;7.40;1.80;;;;;;;;;;4984825;28;20506;-78
2023/04/17 05:37:40;;;;;;;8.98;2.10;;;;;;;;;;4967138;28;20390;-78
2023/04/17 05:40:07;;;;;;;5.85;1.20;;;;;;;;;;4990333;28;20018;-77
2023/04/17 05:42:34;;;;;;;8.05;2.17;;;;;;;;;;4989466;28;20026;-78
2023/04/17 05:45:00;;;;;;;6.38;1.73;;;;;;;;;;4988933;28;20165;-77
2023/04/17 05:47:26;;;;;;;6.72;1.17;;;;;;;;;;4976572;28;20509;-77
2023/04/17 05:49:56;;;;;;;4.78;1.48;;;;;;;;;;4968827;28;20503;-78
2023/04/17 05:52:22;;;;;;;8.98;1.80;;;;;;;;;;4996885;28;20530;-77
2023/04/17 05:54:49;;;;;;;8.55;1.88;;;;;;;;;;4984997;28;20033;-78
2023/04/17 05:57:15;;;;;;;5.82;1.52;;;;;;;;;;4973022;28;20049;-77
2023/04/17 05:59:42;;;;;;;3.40;0.95;;;;;;;;;;4991826;28;20018;-77
2023/04/17 06:02:08;;;;;;;6.85;1.63;;;;;;;;;;4988479;28;20426;-76
2023/04/17 06:04:35;;;;;;;5.43;1.20;;;;;;;;;;4982824;28;20034;-77
2023/04/17 06:07:05;;;;;;;5.22;1.20;;;;;;;;;;4982552;28;20033;-73
2023/04/17 06:09:32;;;;;;;3.83;1.33;;;;;;;;;;4980077;28;20462;-75
2023/04/17 06:11:58;;;;;;;2.75;1.55;;;;;;;;;;4983625;28;20072;-75
2023/04/17 06:14:25;;;;;;;14.50;1.50;;;;;;;;;;4988827;28;20041;-75
2023/04/17 06:16:51;;;;;;;5.80;1.50;;;;;;;;;;4984180;28;20022;-76
2023/04/17 06:19:17;;;;;;;11.98;4.30;;;;;;;;;;4984698;28;20518;-76
2023/04/17 06:21:43;;;;;;;20.83;6.30;;;;;;;;;;4985716;28;20085;-76
2023/04/17 06:24:10;;;;;;;10.55;4.30;;;;;;;;;;4988748;28;20071;-77
2023/04/17 06:26:36;;;;;;;13.07;4.95;;;;;;;;;;4988115;28;20048;-77
2023/04/17 06:29:03;;;;;;;10.93;4.05;;;;;;;;;;4983225;28;20130;-76
2023/04/17 06:31:29;;;;;;;12.40;4.10;;;;;;;;;;4988758;28;20027;-77
2023/04/17 06:33:56;;;;;;;8.60;4.13;;;;;;;;;;4988803;28;20059;-77
2023/04/17 06:36:22;;;;;;;9.07;3.47;;;;;;;;;;4984006;28;20105;-77
2023/04/17 06:38:48;;;;;;;11.52;3.38;;;;;;;;;;4985257;28;20117;-76
2023/04/17 06:41:15;;;;;;;8.27;3.05;;;;;;;;;;4982693;28;20018;-76
2023/04/17 06:43:41;;;;;;;9.23;3.97;;;;;;;;;;4999709;28;20569;-77
2023/04/17 06:46:07;;;;;;;9.77;3.05;;;;;;;;;;4987271;28;20049;-91
2023/04/17 06:48:33;;;;;;;3.97;1.52;;;;;;;;;;4984568;28;20031;-78
2023/04/17 06:51:00;;;;;;;9.77;3.08;;;;;;;;;;4981957;28;20026;-80
2023/04/17 06:53:26;;;;;;;9.82;4.90;;;;;;;;;;4981570;28;20041;-79
2023/04/17 06:55:53;;;;;;;8.85;4.18;;;;;;;;;;4969459;28;20050;-79
2023/04/17 06:58:20;;;;;;;7.55;3.15;;;;;;;;;;4987813;28;20019;-79
2023/04/17 07:00:46;;;;;;;7.47;3.00;;;;;;;;;;4982421;28;20113;-77
2023/04/17 07:03:13;;;;;;;7.05;3.15;;;;;;;;;;4979580;28;20122;-80
2023/04/17 07:05:40;;;;;;;10.68;2.95;;;;;;;;;;4967386;28;20041;-77
2023/04/17 07:08:07;;;;;;;8.32;1.75;;;;;;;;;;4983959;28;20152;-86
2023/04/17 07:10:33;;;;;;;6.38;1.50;;;;;;;;;;4986430;28;20409;-76
2023/04/17 07:12:59;;;;;;;8.75;2.45;;;;;;;;;;4982102;28;20028;-76
2023/04/17 07:15:29;;;;;;;10.00;2.75;;;;;;;;;;4983588;28;20455;-78
2023/04/17 07:17:55;;;;;;;4.53;2.00;;;;;;;;;;4963686;28;20022;-75
2023/04/17 07:20:21;;;;;;;4.25;1.35;;;;;;;;;;4985327;28;20034;-78
2023/04/17 07:22:48;;;;;;;7.78;1.83;;;;;;;;;;4990068;28;20037;-77
2023/04/17 07:25:15;;;;;;;3.60;1.67;;;;;;;;;;4982714;28;20712;-77
2023/04/17 07:27:41;;;;;;;9.32;1.98;;;;;;;;;;4981453;28;20472;-77
2023/04/17 07:30:07;;;;;;;10.73;2.72;;;;;;;;;;4989946;28;20026;-77
2023/04/17 07:32:34;;;;;;;4.25;1.50;;;;;;;;;;4985697;28;20039;-77
2023/04/17 07:35:00;;;;;;;6.22;1.25;;;;;;;;;;4993402;28;20094;-76
2023/04/17 07:37:26;;;;;;;4.45;1.00;;;;;;;;;;4985247;28;20034;-77
2023/04/17 07:39:53;;;;;;;6.40;1.52;;;;;;;;;;4984448;28;20097;-77
2023/04/17 07:42:19;;;;;;;6.78;1.40;;;;;;;;;;4992161;28;20534;-78
2023/04/17 07:44:46;;;;;;;7.55;1.92;;;;;;;;;;4970409;28;20100;-77
2023/04/17 07:47:12;;;;;;;4.10;1.30;;;;;;;;;;4987709;28;20609;-76
2023/04/17 07:49:39;;;;;;;7.18;1.40;;;;;;;;;;4964509;28;20034;-77
2023/04/17 07:52:05;;;;;;;5.32;1.25;;;;;;;;;;4983941;28;20033;-77
2023/04/17 07:54:31;;;;;;;4.18;1.50;;;;;;;;;;4984111;28;20437;-77
2023/04/17 07:57:02;;;;;;;4.82;1.13;;;;;;;;;;4983859;28;20622;-77
2023/04/17 07:59:29;;;;;;;9.02;1.70;;;;;;;;;;4985737;28;20229;-76
2023/04/17 08:01:56;;;;;;;7.10;1.55;;;;;;;;;;4978406;28;20057;-77
2023/04/17 08:04:23;;;;;;;4.47;1.15;;;;;;;;;;4984011;28;20038;-77
2023/04/17 08:06:49;;;;;;;6.40;1.27;;;;;;;;;;4984110;28;20149;-77
2023/04/17 08:09:15;;;;;;;8.93;1.88;;;;;;;;;;4982529;28;20121;-77
2023/04/17 08:11:44;;;;;;;6.30;2.65;;;;;;;;;;4988804;28;20479;-77
2023/04/17 08:14:10;;;;;;;8.23;1.50;;;;;;;;;;4990807;28;20658;-77
2023/04/17 08:16:37;;;;;;;7.97;1.52;;;;;;;;;;4985113;28;20034;-77
2023/04/17 08:19:03;;;;;;;8.20;1.95;;;;;;;;;;4984883;28;20630;-77
2023/04/17 08:21:30;;;;;;;10.77;1.77;;;;;;;;;;4982228;28;20037;-77
2023/04/17 08:23:56;;;;;;;5.57;1.38;;;;;;;;;;4983979;28;20503;-77
2023/04/17 08:26:22;;;;;;;11.27;1.77;;;;;;;;;;4988185;28;20442;-77
2023/04/17 08:28:48;;;;;;;8.88;1.70;;;;;;;;;;4981571;28;20057;-77
2023/04/17 08:31:15;;;;;;;5.28;1.80;;;;;;;;;;4987017;28;20105;-76
2023/04/17 08:33:41;;;;;;;9.20;1.67;;;;;;;;;;4982802;28;20026;-77
2023/04/17 08:36:08;;;;;;;5.75;1.67;;;;;;;;;;4985710;28;20057;-77
2023/04/17 08:38:34;;;;;;;5.00;1.70;;;;;;;;;;4987440;28;20029;-77
2023/04/17 08:41:06;;;;;;;8.45;1.50;;;;;;;;;;4990759;28;20531;-77
2023/04/17 08:43:34;;;;;;;9.70;2.28;;;;;;;;;;4990089;28;20033;-76
2023/04/17 08:46:02;;;;;;;7.50;1.83;;;;;;;;;;4986864;28;20026;-77
2023/04/17 08:48:28;;;;;;;6.65;1.58;;;;;;;;;;4991775;28;20658;-77
2023/04/17 08:50:54;;;;;;;6.95;1.70;;;;;;;;;;4989902;28;20033;-78
2023/04/17 08:53:21;;;;;;;7.22;1.52;;;;;;;;;;4987450;28;20313;-76
2023/04/17 08:55:47;;;;;;;5.55;1.30;;;;;;;;;;4985078;28;20482;-76
2023/04/17 08:58:14;;;;;;;4.60;1.50;;;;;;;;;;4969642;28;20066;-76
2023/04/17 09:00:41;;;;;;;3.88;1.23;;;;;;;;;;4986406;28;20045;-76
2023/04/17 09:03:09;;;;;;;4.03;1.65;;;;;;;;;;4986818;28;20088;-76
2023/04/17 09:05:36;;;;;;;7.00;1.50;;;;;;;;;;4967261;28;20061;-77
2023/04/17 09:08:07;;;;;;;7.68;1.60;;;;;;;;;;4987154;28;20411;-78
2023/04/17 09:10:48;;;;;;;15.07;1.90;;;;;;;;;;4969419;28;20553;-76
2023/04/17 09:13:16;;;;;;;3.90;1.08;;;;;;;;;;4982979;28;20062;-76
2023/04/17 09:15:43;;;;;;;3.90;1.45;;;;;;;;;;4986683;28;20085;-77
2023/04/17 09:18:26;;;;;;;4.13;1.42;;;;;;;;;;4967461;28;20042;-77
2023/04/17 09:20:53;;;;;;;5.28;1.63;;;;;;;;;;4990436;28;20022;-78
2023/04/17 09:23:21;;;;;;;6.15;1.45;;;;;;;;;;4987165;28;20039;-78
2023/04/17 09:26:04;;;;;;;5.65;1.40;;;;;;;;;;4989494;28;20061;-77
2023/04/17 09:28:34;;;;;;;4.00;1.67;;;;;;;;;;4986627;28;20030;-77
2023/04/17 09:31:04;;;;;;;5.97;1.75;;;;;;;;;;4963367;28;20026;-77
2023/04/17 09:33:30;;;;;;;8.45;1.48;;;;;;;;;;4986141;28;20026;-77
2023/04/17 09:36:16;;;;;;;2.83;1.30;;;;;;;;;;4986150;28;20034;-77
2023/04/17 09:38:43;;;;;;;6.97;1.73;;;;;;;;;;4981996;28;20117;-77
2023/04/17 09:41:22;;;;;;;2.65;1.30;;;;;;;;;;4990373;28;20033;-76
2023/04/17 09:43:49;;;;;;;4.82;1.45;;;;;;;;;;4971512;28;20038;-77
2023/04/17 09:46:30;;;;;;;5.13;1.63;;;;;;;;;;4984285;28;20018;-76
2023/04/17 09:48:59;;;;;;;4.50;1.80;;;;;;;;;;4990966;28;20084;-76
2023/04/17 09:51:25;;;;;;;4.03;1.25;;;;;;;;;;4976869;28;20110;-76
2023/04/17 09:53:52;;;;;;;6.22;1.98;;;;;;;;;;4993231;28;20032;-76
2023/04/17 09:56:20;;;;;;;4.90;1.40;;;;;;;;;;4988810;28;20113;-77
2023/04/17 09:58:47;;;;;;;9.05;4.00;;;;;;;;;;4986640;28;20053;-76
2023/04/17 10:01:15;;;;;;;10.60;4.57;;;;;;;;;;4982652;28;20033;-77
2023/04/17 10:03:41;;;;;;;17.98;8.55;;;;;;;;;;4983294;28;20034;-77
2023/04/17 10:06:08;;;;;;;13.20;5.82;;;;;;;;;;4985680;28;20022;-77
2023/04/17 10:08:34;;;;;;;12.43;5.55;;;;;;;;;;4985840;28;20030;-76
2023/04/17 10:11:05;;;;;;;7.22;3.95;;;;;;;;;;4985396;28;20065;-77
2023/04/17 10:13:33;;;;;;;15.70;6.70;;;;;;;;;;4984390;28;20069;-77
2023/04/17 10:15:59;;;;;;;7.90;5.43;;;;;;;;;;4962101;28;20110;-73
2023/04/17 10:18:27;;;;;;;14.70;8.32;;;;;;;;;;4983600;28;20061;-75
2023/04/17 10:20:54;;;;;;;10.48;6.47;;;;;;;;;;4987570;28;20057;-77
2023/04/17 10:23:28;;;;;;;15.20;5.22;;;;;;;;;;4991908;28;20034;-77
2023/04/17 10:26:33;;;;;;;12.13;4.40;;;;;;;;;;4988907;28;20035;-77
2023/04/17 10:28:59;;;;;;;11.20;3.90;;;;;;;;;;4907833;29;20112;-77
2023/04/17 10:31:45;;;;;;;13.70;4.15;;;;;;;;;;4891827;29;20629;-77
2023/04/17 10:34:31;;;;;;;13.07;4.00;;;;;;;;;;4935183;28;20133;-76
2023/04/17 10:36:58;;;;;;;11.88;4.57;;;;;;;;;;4982014;28;20113;-77
2023/04/17 10:39:24;;;;;;;9.90;5.25;;;;;;;;;;5002365;28;20034;-77
2023/04/17 10:42:03;;;;;;;13.40;4.82;;;;;;;;;;4985229;28;20030;-77
2023/04/17 10:44:35;;;;;;;9.98;3.20;;;;;;;;;;4991883;28;20628;-77
2023/04/17 10:47:05;;;;;;;6.72;1.38;;;;;;;;;;4988585;28;20153;-77
2023/04/17 10:49:50;;;;;;;8.02;1.83;;;;;;;;;;4979838;28;20109;-78
2023/04/17 10:52:38;;;;;;;2.65;1.05;;;;;;;;;;4983342;28;20061;-79
2023/04/17 10:55:06;;;;;;;2.60;1.15;;;;;;;;;;4982129;28;20022;-79
2023/04/17 10:57:51;;;;;;;2.08;1.17;;;;;;;;;;4982271;28;20479;-78
2023/04/17 11:00:18;;;;;;;4.57;1.27;;;;;;;;;;4984284;28;20061;-79
2023/04/17 11:02:44;;;;;;;3.90;1.20;;;;;;;;;;4986528;28;20083;-78
2023/04/17 11:05:11;;;;;;;7.60;1.35;;;;;;;;;;4977525;28;20203;-78
2023/04/17 11:07:37;;;;;;;3.88;1.23;;;;;;;;;;4984184;28;20030;-78
2023/04/17 11:10:06;;;;;;;3.03;1.17;;;;;;;;;;4982670;28;20630;-78
2023/04/17 11:12:33;;;;;;;9.05;1.73;;;;;;;;;;4982154;28;20022;-78
2023/04/17 11:15:02;;;;;;;4.35;1.75;;;;;;;;;;4982883;28;20062;-77
2023/04/17 11:17:29;;;;;;;7.43;1.50;;;;;;;;;;4982552;28;20535;-77
2023/04/17 11:19:56;;;;;;;5.05;1.38;;;;;;;;;;4981325;28;20042;-77
2023/04/17 11:22:22;;;;;;;4.38;1.15;;;;;;;;;;4989736;28;20069;-77
2023/04/17 11:24:50;;;;;;;2.80;1.23;;;;;;;;;;4982685;28;20038;-77
2023/04/17 11:27:17;;;;;;;8.07;1.23;;;;;;;;;;4993591;28;20553;-77
2023/04/17 11:29:44;;;;;;;5.32;1.30;;;;;;;;;;4984557;28;20134;-77
2023/04/17 11:32:11;;;;;;;4.43;1.30;;;;;;;;;;4992552;28;20546;-77
2023/04/17 11:34:37;;;;;;;5.22;1.90;;;;;;;;;;4989911;28;20063;-77
2023/04/17 11:37:04;;;;;;;7.18;1.88;;;;;;;;;;4984271;28;20022;-77
2023/04/17 11:39:32;;;;;;;7.85;1.25;;;;;;;;;;4993197;28;20494;-77
2023/04/17 11:41:58;;;;;;;4.78;1.48;;;;;;;;;;4984776;28;20471;-77
2023/04/17 11:44:25;;;;;;;3.67;1.10;;;;;;;;;;4983212;28;20038;-77
2023/04/17 11:46:57;;;;;;;7.53;1.20;;;;;;;;;;4966905;28;20430;-77
2023/04/17 11:49:27;;;;;;;9.02;1.42;;;;;;;;;;4983343;28;20034;-77
2023/04/17 11:51:53;;;;;;;6.05;1.35;;;;;;;;;;4981919;28;20026;-76
2023/04/17 11:54:21;;;;;;;15.35;2.42;;;;;;;;;;4981142;28;20093;-77
2023/04/17 11:57:00;;;;;;;7.57;1.83;;;;;;;;;;4981381;28;20062;-77
2023/04/17 11:59:44;;;;;;;5.30;1.38;;;;;;;;;;4981305;28;20036;-77
2023/04/17 12:02:11;;;;;;;9.13;1.30;;;;;;;;;;4961664;28;20604;-77
2023/04/17 12:04:38;;;;;;;8.35;1.63;;;;;;;;;;4979408;28;20488;-78
2023/04/17 12:07:05;;;;;;;5.97;1.75;;;;;;;;;;4975948;28;20034;-78
2023/04/17 12:09:32;;;;;;;3.95;1.00;;;;;;;;;;4968111;28;20030;-79
2023/04/17 12:12:04;;;;;;;3.63;1.13;;;;;;;;;;4971930;28;20587;-78
2023/04/17 12:14:30;;;;;;;5.50;0.60;;;;;;;;;;4984813;28;20037;-77
2023/04/17 12:16:57;;;;;;;5.93;0.93;;;;;;;;;;4994244;28;20105;-77
2023/04/17 12:19:25;;;;;;;1.90;0.70;;;;;;;;;;4995542;28;20054;-80
2023/04/17 12:21:51;;;;;;;3.55;0.77;;;;;;;;;;4989480;28;20028;-80
2023/04/17 12:24:18;;;;;;;2.53;0.70;;;;;;;;;;4990820;28;20030;-80
2023/04/17 12:26:48;;;;;;;3.28;0.82;;;;;;;;;;4990063;28;20028;-78
2023/04/17 12:29:14;;;;;;;3.45;0.70;;;;;;;;;;4988146;28;20065;-78
2023/04/17 12:31:40;;;;;;;1.95;0.80;;;;;;;;;;4995488;28;20543;-77
2023/04/17 12:34:07;;;;;;;3.35;0.90;;;;;;;;;;4987014;28;20030;-77
2023/04/17 12:36:33;;;;;;;4.85;1.10;;;;;;;;;;4986712;28;20117;-77
2023/04/17 12:39:00;;;;;;;3.13;0.80;;;;;;;;;;5000446;28;20030;-78
2023/04/17 12:41:26;;;;;;;4.45;0.85;;;;;;;;;;4968997;28;20608;-77
2023/04/17 12:43:53;;;;;;;2.05;0.70;;;;;;;;;;4985609;28;20211;-78
2023/04/17 12:46:20;;;;;;;4.03;0.95;;;;;;;;;;4985237;28;20058;-76
2023/04/17 12:48:46;;;;;;;3.30;1.20;;;;;;;;;;4984666;28;20029;-76
2023/04/17 12:51:12;;;;;;;3.72;0.75;;;;;;;;;;4986702;28;20041;-77
2023/04/17 12:53:38;;;;;;;3.13;0.70;;;;;;;;;;4984444;28;20029;-77
2023/04/17 12:56:04;;;;;;;3.72;0.98;;;;;;;;;;4984659;28;20033;-77
2023/04/17 12:58:32;;;;;;;4.70;0.88;;;;;;;;;;4985276;28;20097;-78
2023/04/17 13:00:58;;;;;;;3.05;0.90;;;;;;;;;;4988217;28;20410;-80
2023/04/17 13:03:24;;;;;;;1.10;0.50;;;;;;;;;;4996328;28;20246;-79
2023/04/17 13:05:52;;;;;;;2.03;0.85;;;;;;;;;;4995525;28;20105;-78
2023/04/17 13:08:18;;;;;;;5.47;1.10;;;;;;;;;;4987995;28;20546;-77
2023/04/17 13:10:44;;;;;;;4.28;1.77;;;;;;;;;;4991125;28;20026;-75
2023/04/17 13:13:10;;;;;;;3.58;1.38;;;;;;;;;;4987562;28;20034;-77
2023/04/17 13:15:37;;;;;;;2.22;1.38;;;;;;;;;;4988097;28;20029;-76
2023/04/17 13:18:03;;;;;;;2.15;1.00;;;;;;;;;;4985061;28;20392;-74
2023/04/17 13:20:29;;;;;;;7.03;1.20;;;;;;;;;;4969205;28;20034;-78
2023/04/17 13:22:55;;;;;;;3.75;2.05;;;;;;;;;;4985918;28;20029;-78
2023/04/17 13:25:22;;;;;;;3.05;2.35;;;;;;;;;;4984035;28;20148;-74
2023/04/17 13:27:48;;;;;;;2.08;0.93;;;;;;;;;;4986045;28;20030;-77
2023/04/17 13:30:14;;;;;;;4.57;0.80;;;;;;;;;;4992176;28;20035;-77
2023/04/17 13:32:42;;;;;;;3.63;0.90;;;;;;;;;;4985036;28;20101;-76
2023/04/17 13:35:10;;;;;;;2.67;0.75;;;;;;;;;;4983834;28;20034;-75
2023/04/17 13:37:36;;;;;;;4.03;0.70;;;;;;;;;;4989158;28;20057;-77
2023/04/17 13:40:04;;;;;;;1.60;0.80;;;;;;;;;;4987368;28;20034;-76
2023/04/17 13:42:30;;;;;;;2.08;0.68;;;;;;;;;;4986059;28;20453;-77
2023/04/17 13:44:56;;;;;;;1.65;0.60;;;;;;;;;;4985571;28;20129;-76
2023/04/17 13:47:23;;;;;;;2.70;0.70;;;;;;;;;;4967696;28;21082;-76
2023/04/17 13:49:49;;;;;;;2.58;0.90;;;;;;;;;;4987349;28;20029;-78
2023/04/17 13:52:16;;;;;;;6.03;3.10;;;;;;;;;;4985298;28;20025;-77
2023/04/17 13:54:42;;;;;;;4.10;1.55;;;;;;;;;;4988990;28;20030;-76
2023/04/17 13:57:08;;;;;;;3.25;1.30;;;;;;;;;;4984653;28;20023;-77
2023/04/17 13:59:34;;;;;;;2.35;0.77;;;;;;;;;;4990639;28;20025;-77
2023/04/17 14:02:02;;;;;;;4.07;0.88;;;;;;;;;;4991726;28;20050;-76
2023/04/17 14:04:32;;;;;;;4.45;1.90;;;;;;;;;;4982816;28;20042;-76
2023/04/17 14:06:58;;;;;;;2.08;0.90;;;;;;;;;;4964654;28;20023;-76
2023/04/17 14:09:24;;;;;;;2.22;0.70;;;;;;;;;;4976369;28;20030;-76
2023/04/17 14:11:51;;;;;;;3.47;1.10;;;;;;;;;;4987789;28;20030;-76
2023/04/17 14:14:17;;;;;;;6.47;0.88;;;;;;;;;;4992966;28;20036;-76
2023/04/17 14:16:46;;;;;;;0.93;0.52;;;;;;;;;;4984441;28;20030;-76
2023/04/17 14:19:12;;;;;;;1.73;0.60;;;;;;;;;;4983355;28;20061;-76
2023/04/17 14:21:38;;;;;;;1.77;0.63;;;;;;;;;;4996496;28;20479;-77
2023/04/17 14:24:05;;;;;;;5.28;0.90;;;;;;;;;;4978275;28;20035;-76
2023/04/17 14:26:31;;;;;;;0.80;0.50;;;;;;;;;;4983036;28;20025;-76
2023/04/17 14:28:57;;;;;;;5.18;1.20;;;;;;;;;;4980865;28;20084;-76
2023/04/17 14:31:23;;;;;;;0.85;0.55;;;;;;;;;;4983788;28;20081;-76
2023/04/17 14:33:50;;;;;;;2.67;0.80;;;;;;;;;;4965122;28;20066;-76
2023/04/17 14:36:16;;;;;;;1.80;1.00;;;;;;;;;;4990479;28;20032;-76
2023/04/17 14:38:47;;;;;;;3.30;0.60;;;;;;;;;;4983041;28;20860;-76
2023/04/17 14:41:13;;;;;;;4.90;0.70;;;;;;;;;;4972489;28;20049;-76